sensor_id;sensor_type;location;lat;lon;timestamp;pressure;altitude;pressure_sealevel;temperature;humidity
54144;BME280;40050;47.324;18.792;2024-01-16T00:00:34;992.73;;;3.43;54.99
54144;BME280;40050;47.324;18.792;2024-01-16T00:02:35;992.72;;;3.37;55.13
54144;BME280;40050;47.324;18.792;2024-01-16T00:04:36;992.78;;;3.35;55.21
54144;BME280;40050;47.324;18.792;2024-01-16T00:06:40;992.82;;;3.34;55.20
54144;BME280;40050;47.324;18.792;2024-01-16T00:08:41;992.78;;;3.30;55.32
54144;BME280;40050;47.324;18.792;2024-01-16T00:10:42;992.78;;;3.24;55.60
54144;BME280;40050;47.324;18.792;2024-01-16T00:12:43;992.85;;;3.25;55.33
54144;BME280;40050;47.324;18.792;2024-01-16T00:14:44;992.87;;;3.27;55.34
54144;BME280;40050;47.324;18.792;2024-01-16T00:16:45;992.87;;;3.26;55.33
54144;BME280;40050;47.324;18.792;2024-01-16T00:18:46;992.90;;;3.18;55.65
54144;BME280;40050;47.324;18.792;2024-01-16T00:20:47;992.93;;;3.18;55.92
54144;BME280;40050;47.324;18.792;2024-01-16T00:22:48;992.97;;;3.17;56.11
54144;BME280;40050;47.324;18.792;2024-01-16T00:24:49;992.97;;;3.14;56.14
54144;BME280;40050;47.324;18.792;2024-01-16T00:26:50;992.93;;;3.17;56.11
54144;BME280;40050;47.324;18.792;2024-01-16T00:28:51;992.96;;;3.15;56.33
54144;BME280;40050;47.324;18.792;2024-01-16T00:30:52;992.95;;;3.15;56.50
54144;BME280;40050;47.324;18.792;2024-01-16T00:32:53;992.91;;;3.14;56.72
54144;BME280;40050;47.324;18.792;2024-01-16T00:34:54;992.96;;;3.12;57.31
54144;BME280;40050;47.324;18.792;2024-01-16T00:36:55;992.98;;;3.11;57.37
54144;BME280;40050;47.324;18.792;2024-01-16T00:38:56;993.03;;;3.10;57.45
54144;BME280;40050;47.324;18.792;2024-01-16T00:40:57;993.10;;;3.10;57.76
54144;BME280;40050;47.324;18.792;2024-01-16T00:42:58;993.13;;;3.09;57.88
54144;BME280;40050;47.324;18.792;2024-01-16T00:44:59;993.14;;;2.96;58.43
54144;BME280;40050;47.324;18.792;2024-01-16T00:46:59;993.21;;;3.00;58.65
54144;BME280;40050;47.324;18.792;2024-01-16T00:49:00;993.20;;;2.93;58.59
54144;BME280;40050;47.324;18.792;2024-01-16T00:51:01;993.25;;;3.01;58.26
54144;BME280;40050;47.324;18.792;2024-01-16T00:53:02;993.34;;;3.07;58.22
54144;BME280;40050;47.324;18.792;2024-01-16T00:55:04;993.34;;;3.04;58.42
54144;BME280;40050;47.324;18.792;2024-01-16T00:57:05;993.40;;;3.04;58.43
54144;BME280;40050;47.324;18.792;2024-01-16T00:59:06;993.37;;;2.98;58.63
54144;BME280;40050;47.324;18.792;2024-01-16T01:01:07;993.51;;;3.05;58.28
54144;BME280;40050;47.324;18.792;2024-01-16T01:03:08;993.52;;;3.04;58.21
54144;BME280;40050;47.324;18.792;2024-01-16T01:05:09;993.60;;;3.07;58.16
54144;BME280;40050;47.324;18.792;2024-01-16T01:07:12;993.60;;;3.03;58.09
54144;BME280;40050;47.324;18.792;2024-01-16T01:09:13;993.71;;;3.07;58.00
54144;BME280;40050;47.324;18.792;2024-01-16T01:11:14;993.75;;;3.05;57.97
54144;BME280;40050;47.324;18.792;2024-01-16T01:13:15;993.73;;;3.04;57.93
54144;BME280;40050;47.324;18.792;2024-01-16T01:15:16;993.78;;;3.06;57.81
54144;BME280;40050;47.324;18.792;2024-01-16T01:17:17;993.81;;;2.97;58.04
54144;BME280;40050;47.324;18.792;2024-01-16T01:19:27;993.86;;;3.01;57.81
54144;BME280;40050;47.324;18.792;2024-01-16T01:21:28;993.86;;;3.01;57.79
54144;BME280;40050;47.324;18.792;2024-01-16T01:23:29;993.88;;;2.95;57.89
54144;BME280;40050;47.324;18.792;2024-01-16T01:25:30;993.92;;;2.96;57.89
54144;BME280;40050;47.324;18.792;2024-01-16T01:27:31;993.92;;;2.91;57.82
54144;BME280;40050;47.324;18.792;2024-01-16T01:29:32;994.02;;;2.92;57.90
54144;BME280;40050;47.324;18.792;2024-01-16T01:31:33;993.99;;;2.92;57.87
54144;BME280;40050;47.324;18.792;2024-01-16T01:33:34;993.93;;;2.85;57.91
54144;BME280;40050;47.324;18.792;2024-01-16T01:35:35;993.97;;;2.90;57.77
54144;BME280;40050;47.324;18.792;2024-01-16T01:37:36;993.92;;;2.85;57.86
54144;BME280;40050;47.324;18.792;2024-01-16T01:39:37;993.97;;;2.89;57.76
54144;BME280;40050;47.324;18.792;2024-01-16T01:41:38;994.01;;;2.83;57.93
54144;BME280;40050;47.324;18.792;2024-01-16T01:43:39;994.06;;;2.85;57.77
54144;BME280;40050;47.324;18.792;2024-01-16T01:45:40;994.04;;;2.78;57.92
54144;BME280;40050;47.324;18.792;2024-01-16T01:47:41;994.04;;;2.74;57.93
54144;BME280;40050;47.324;18.792;2024-01-16T01:49:47;994.16;;;2.76;57.86
54144;BME280;40050;47.324;18.792;2024-01-16T01:51:55;994.15;;;2.67;58.02
54144;BME280;40050;47.324;18.792;2024-01-16T01:53:56;994.20;;;2.67;58.05
54144;BME280;40050;47.324;18.792;2024-01-16T01:55:58;994.24;;;2.64;57.94
54144;BME280;40050;47.324;18.792;2024-01-16T01:57:59;994.28;;;2.62;57.91
54144;BME280;40050;47.324;18.792;2024-01-16T02:00:12;994.29;;;2.54;58.05
54144;BME280;40050;47.324;18.792;2024-01-16T02:02:17;994.30;;;2.58;58.01
54144;BME280;40050;47.324;18.792;2024-01-16T02:04:18;994.38;;;2.68;57.72
54144;BME280;40050;47.324;18.792;2024-01-16T02:06:20;994.36;;;2.64;57.72
54144;BME280;40050;47.324;18.792;2024-01-16T02:08:21;994.49;;;2.67;57.67
54144;BME280;40050;47.324;18.792;2024-01-16T02:10:22;994.47;;;2.64;57.64
54144;BME280;40050;47.324;18.792;2024-01-16T02:12:23;994.47;;;2.64;57.66
54144;BME280;40050;47.324;18.792;2024-01-16T02:14:24;994.62;;;2.66;57.73
54144;BME280;40050;47.324;18.792;2024-01-16T02:16:26;994.57;;;2.56;57.84
54144;BME280;40050;47.324;18.792;2024-01-16T02:18:53;994.59;;;2.55;58.03
54144;BME280;40050;47.324;18.792;2024-01-16T02:21:00;994.63;;;2.47;58.28
54144;BME280;40050;47.324;18.792;2024-01-16T02:23:12;994.62;;;2.45;58.25
54144;BME280;40050;47.324;18.792;2024-01-16T02:25:14;994.74;;;2.49;58.20
54144;BME280;40050;47.324;18.792;2024-01-16T02:27:15;994.80;;;2.53;58.03
54144;BME280;40050;47.324;18.792;2024-01-16T02:29:45;994.81;;;2.52;58.08
54144;BME280;40050;47.324;18.792;2024-01-16T02:31:55;994.81;;;2.49;58.09
54144;BME280;40050;47.324;18.792;2024-01-16T02:33:56;994.84;;;2.54;58.01
54144;BME280;40050;47.324;18.792;2024-01-16T02:35:58;994.87;;;2.55;57.92
54144;BME280;40050;47.324;18.792;2024-01-16T02:37:59;994.88;;;2.55;58.01
54144;BME280;40050;47.324;18.792;2024-01-16T02:40:00;994.87;;;2.56;57.90
54144;BME280;40050;47.324;18.792;2024-01-16T02:42:01;994.83;;;2.58;57.84
54144;BME280;40050;47.324;18.792;2024-01-16T02:44:02;994.85;;;2.55;57.86
54144;BME280;40050;47.324;18.792;2024-01-16T02:46:03;994.97;;;2.56;57.84
54144;BME280;40050;47.324;18.792;2024-01-16T02:48:04;994.99;;;2.59;57.84
54144;BME280;40050;47.324;18.792;2024-01-16T02:50:05;994.98;;;2.55;57.76
54144;BME280;40050;47.324;18.792;2024-01-16T02:52:06;995.04;;;2.60;57.74
54144;BME280;40050;47.324;18.792;2024-01-16T02:54:07;995.04;;;2.60;57.78
54144;BME280;40050;47.324;18.792;2024-01-16T02:56:08;995.00;;;2.57;57.82
54144;BME280;40050;47.324;18.792;2024-01-16T02:58:09;995.09;;;2.64;57.66
54144;BME280;40050;47.324;18.792;2024-01-16T03:00:10;995.14;;;2.62;57.71
54144;BME280;40050;47.324;18.792;2024-01-16T03:02:11;995.11;;;2.61;57.60
54144;BME280;40050;47.324;18.792;2024-01-16T03:04:12;995.18;;;2.60;57.73
54144;BME280;40050;47.324;18.792;2024-01-16T03:06:22;995.22;;;2.58;57.73
54144;BME280;40050;47.324;18.792;2024-01-16T03:08:23;995.20;;;2.58;57.64
54144;BME280;40050;47.324;18.792;2024-01-16T03:10:24;995.18;;;2.59;57.50
54144;BME280;40050;47.324;18.792;2024-01-16T03:12:25;995.25;;;2.61;57.44
54144;BME280;40050;47.324;18.792;2024-01-16T03:14:26;995.24;;;2.56;57.44
54144;BME280;40050;47.324;18.792;2024-01-16T03:16:27;995.28;;;2.52;57.64
54144;BME280;40050;47.324;18.792;2024-01-16T03:18:28;995.36;;;2.58;57.52
54144;BME280;40050;47.324;18.792;2024-01-16T03:20:29;995.34;;;2.56;57.36
54144;BME280;40050;47.324;18.792;2024-01-16T03:22:30;995.41;;;2.60;57.40
54144;BME280;40050;47.324;18.792;2024-01-16T03:24:31;995.39;;;2.60;57.36
54144;BME280;40050;47.324;18.792;2024-01-16T03:26:32;995.38;;;2.59;57.34
54144;BME280;40050;47.324;18.792;2024-01-16T03:28:32;995.39;;;2.62;57.09
54144;BME280;40050;47.324;18.792;2024-01-16T03:30:33;995.44;;;2.67;56.78
54144;BME280;40050;47.324;18.792;2024-01-16T03:32:35;995.49;;;2.72;56.74
54144;BME280;40050;47.324;18.792;2024-01-16T03:34:36;995.47;;;2.72;56.68
54144;BME280;40050;47.324;18.792;2024-01-16T03:36:37;995.46;;;2.75;56.27
54144;BME280;40050;47.324;18.792;2024-01-16T03:38:39;995.44;;;2.75;56.03
54144;BME280;40050;47.324;18.792;2024-01-16T03:40:40;995.50;;;2.76;56.20
54144;BME280;40050;47.324;18.792;2024-01-16T03:42:41;995.44;;;2.75;55.98
54144;BME280;40050;47.324;18.792;2024-01-16T03:44:42;995.47;;;2.76;55.80
54144;BME280;40050;47.324;18.792;2024-01-16T03:46:43;995.45;;;2.78;55.85
54144;BME280;40050;47.324;18.792;2024-01-16T03:48:44;995.44;;;2.80;55.57
54144;BME280;40050;47.324;18.792;2024-01-16T03:50:45;995.46;;;2.86;55.25
54144;BME280;40050;47.324;18.792;2024-01-16T03:52:46;995.51;;;2.83;55.05
54144;BME280;40050;47.324;18.792;2024-01-16T03:54:46;995.55;;;2.83;55.15
54144;BME280;40050;47.324;18.792;2024-01-16T03:56:47;995.62;;;2.79;55.02
54144;BME280;40050;47.324;18.792;2024-01-16T03:58:48;995.66;;;2.78;55.10
54144;BME280;40050;47.324;18.792;2024-01-16T04:00:49;995.68;;;2.81;54.93
54144;BME280;40050;47.324;18.792;2024-01-16T04:02:50;995.72;;;2.77;54.94
54144;BME280;40050;47.324;18.792;2024-01-16T04:04:51;995.69;;;2.78;54.92
54144;BME280;40050;47.324;18.792;2024-01-16T04:06:52;995.71;;;2.79;54.82
54144;BME280;40050;47.324;18.792;2024-01-16T04:08:53;995.67;;;2.77;54.92
54144;BME280;40050;47.324;18.792;2024-01-16T04:10:54;995.69;;;2.78;54.69
54144;BME280;40050;47.324;18.792;2024-01-16T04:12:54;995.72;;;2.76;54.75
54144;BME280;40050;47.324;18.792;2024-01-16T04:14:55;995.72;;;2.75;54.70
54144;BME280;40050;47.324;18.792;2024-01-16T04:16:56;995.67;;;2.73;54.59
54144;BME280;40050;47.324;18.792;2024-01-16T04:18:57;995.67;;;2.70;54.80
54144;BME280;40050;47.324;18.792;2024-01-16T04:20:58;995.78;;;2.71;54.64
54144;BME280;40050;47.324;18.792;2024-01-16T04:22:59;995.81;;;2.68;54.61
54144;BME280;40050;47.324;18.792;2024-01-16T04:25:00;995.80;;;2.62;54.51
54144;BME280;40050;47.324;18.792;2024-01-16T04:27:01;995.88;;;2.63;54.60
54144;BME280;40050;47.324;18.792;2024-01-16T04:29:02;995.86;;;2.55;54.59
54144;BME280;40050;47.324;18.792;2024-01-16T04:31:03;995.94;;;2.60;54.58
54144;BME280;40050;47.324;18.792;2024-01-16T04:33:05;995.97;;;2.54;54.49
54144;BME280;40050;47.324;18.792;2024-01-16T04:35:06;995.93;;;2.48;54.76
54144;BME280;40050;47.324;18.792;2024-01-16T04:37:07;996.05;;;2.50;54.88
54144;BME280;40050;47.324;18.792;2024-01-16T04:39:08;996.09;;;2.51;54.89
54144;BME280;40050;47.324;18.792;2024-01-16T04:41:09;996.12;;;2.47;54.91
54144;BME280;40050;47.324;18.792;2024-01-16T04:43:10;996.22;;;2.51;54.87
54144;BME280;40050;47.324;18.792;2024-01-16T04:45:11;996.21;;;2.53;54.42
54144;BME280;40050;47.324;18.792;2024-01-16T04:47:12;996.26;;;2.51;54.14
54144;BME280;40050;47.324;18.792;2024-01-16T04:49:13;996.26;;;2.55;54.27
54144;BME280;40050;47.324;18.792;2024-01-16T04:51:14;996.23;;;2.54;54.19
54144;BME280;40050;47.324;18.792;2024-01-16T04:53:17;996.31;;;2.56;54.24
54144;BME280;40050;47.324;18.792;2024-01-16T04:55:18;996.29;;;2.54;54.30
54144;BME280;40050;47.324;18.792;2024-01-16T04:57:19;996.34;;;2.59;54.31
54144;BME280;40050;47.324;18.792;2024-01-16T04:59:20;996.37;;;2.62;54.18
54144;BME280;40050;47.324;18.792;2024-01-16T05:01:21;996.35;;;2.60;54.27
54144;BME280;40050;47.324;18.792;2024-01-16T05:03:22;996.39;;;2.62;54.00
54144;BME280;40050;47.324;18.792;2024-01-16T05:05:23;996.41;;;2.58;54.17
54144;BME280;40050;47.324;18.792;2024-01-16T05:07:28;996.51;;;2.61;54.18
54144;BME280;40050;47.324;18.792;2024-01-16T05:09:32;996.52;;;2.61;54.05
54144;BME280;40050;47.324;18.792;2024-01-16T05:11:33;996.60;;;2.63;53.85
54144;BME280;40050;47.324;18.792;2024-01-16T05:13:34;996.66;;;2.62;53.95
54144;BME280;40050;47.324;18.792;2024-01-16T05:15:35;996.66;;;2.61;53.86
54144;BME280;40050;47.324;18.792;2024-01-16T05:17:36;996.77;;;2.64;53.81
54144;BME280;40050;47.324;18.792;2024-01-16T05:19:37;996.80;;;2.66;53.67
54144;BME280;40050;47.324;18.792;2024-01-16T05:21:40;996.81;;;2.64;53.72
54144;BME280;40050;47.324;18.792;2024-01-16T05:28:08;996.89;;;2.72;53.66
54144;BME280;40050;47.324;18.792;2024-01-16T05:30:09;996.83;;;2.63;53.33
54144;BME280;40050;47.324;18.792;2024-01-16T05:32:10;996.92;;;2.69;53.58
54144;BME280;40050;47.324;18.792;2024-01-16T05:34:11;996.91;;;2.68;53.61
54144;BME280;40050;47.324;18.792;2024-01-16T05:36:14;996.99;;;2.68;53.49
54144;BME280;40050;47.324;18.792;2024-01-16T05:40:25;997.03;;;2.66;53.68
54144;BME280;40050;47.324;18.792;2024-01-16T05:42:38;997.08;;;2.64;53.78
54144;BME280;40050;47.324;18.792;2024-01-16T05:44:39;997.07;;;2.67;53.51
54144;BME280;40050;47.324;18.792;2024-01-16T05:46:39;997.13;;;2.74;53.47
54144;BME280;40050;47.324;18.792;2024-01-16T05:48:40;997.13;;;2.76;53.43
54144;BME280;40050;47.324;18.792;2024-01-16T05:50:41;997.15;;;2.76;53.19
54144;BME280;40050;47.324;18.792;2024-01-16T05:52:42;997.14;;;2.76;53.04
54144;BME280;40050;47.324;18.792;2024-01-16T05:54:43;997.13;;;2.77;53.14
54144;BME280;40050;47.324;18.792;2024-01-16T05:56:44;997.14;;;2.76;52.96
54144;BME280;40050;47.324;18.792;2024-01-16T05:58:45;997.22;;;2.77;52.88
54144;BME280;40050;47.324;18.792;2024-01-16T06:00:46;997.18;;;2.72;52.78
54144;BME280;40050;47.324;18.792;2024-01-16T06:02:47;997.23;;;2.73;53.09
54144;BME280;40050;47.324;18.792;2024-01-16T06:04:48;997.15;;;2.69;52.97
54144;BME280;40050;47.324;18.792;2024-01-16T06:06:49;997.29;;;2.73;52.66
54144;BME280;40050;47.324;18.792;2024-01-16T06:08:50;997.25;;;2.65;52.38
54144;BME280;40050;47.324;18.792;2024-01-16T06:10:54;997.33;;;2.69;52.54
54144;BME280;40050;47.324;18.792;2024-01-16T06:12:55;997.33;;;2.65;52.53
54144;BME280;40050;47.324;18.792;2024-01-16T06:15:06;997.39;;;2.62;52.49
54144;BME280;40050;47.324;18.792;2024-01-16T06:17:10;997.42;;;2.64;52.24
54144;BME280;40050;47.324;18.792;2024-01-16T06:19:14;997.50;;;2.60;52.39
54144;BME280;40050;47.324;18.792;2024-01-16T06:27:39;997.57;;;2.62;52.39
54144;BME280;40050;47.324;18.792;2024-01-16T06:31:44;997.59;;;2.68;52.25
54144;BME280;40050;47.324;18.792;2024-01-16T06:33:45;997.66;;;2.71;52.17
54144;BME280;40050;47.324;18.792;2024-01-16T06:35:45;997.61;;;2.71;52.24
54144;BME280;40050;47.324;18.792;2024-01-16T06:37:46;997.56;;;2.71;52.11
54144;BME280;40050;47.324;18.792;2024-01-16T06:39:47;997.71;;;2.74;52.14
54144;BME280;40050;47.324;18.792;2024-01-16T06:41:48;997.65;;;2.68;52.10
54144;BME280;40050;47.324;18.792;2024-01-16T06:43:49;997.74;;;2.67;52.05
54144;BME280;40050;47.324;18.792;2024-01-16T07:20:13;998.37;;;2.82;52.15
54144;BME280;40050;47.324;18.792;2024-01-16T07:22:14;998.35;;;2.84;52.31
54144;BME280;40050;47.324;18.792;2024-01-16T07:24:15;998.42;;;2.98;52.04
54144;BME280;40050;47.324;18.792;2024-01-16T08:21:53;999.39;;;3.48;52.18
54144;BME280;40050;47.324;18.792;2024-01-16T08:23:55;999.37;;;3.43;51.78
54144;BME280;40050;47.324;18.792;2024-01-16T08:25:56;999.36;;;3.49;51.83
54144;BME280;40050;47.324;18.792;2024-01-16T08:27:57;999.43;;;3.60;51.89
54144;BME280;40050;47.324;18.792;2024-01-16T08:29:58;999.42;;;3.73;51.96
54144;BME280;40050;47.324;18.792;2024-01-16T08:49:19;999.58;;;4.17;49.87
54144;BME280;40050;47.324;18.792;2024-01-16T08:51:23;999.56;;;4.19;50.30
54144;BME280;40050;47.324;18.792;2024-01-16T08:53:24;999.62;;;4.38;50.02
54144;BME280;40050;47.324;18.792;2024-01-16T08:55:25;999.59;;;4.44;49.88
54144;BME280;40050;47.324;18.792;2024-01-16T08:57:26;999.56;;;4.50;49.56
54144;BME280;40050;47.324;18.792;2024-01-16T08:59:27;999.59;;;4.59;49.36
54144;BME280;40050;47.324;18.792;2024-01-16T09:01:28;999.62;;;4.65;49.17
54144;BME280;40050;47.324;18.792;2024-01-16T09:03:29;999.68;;;4.73;49.03
54144;BME280;40050;47.324;18.792;2024-01-16T09:05:30;999.73;;;4.75;48.80
54144;BME280;40050;47.324;18.792;2024-01-16T09:07:31;999.71;;;4.78;49.21
54144;BME280;40050;47.324;18.792;2024-01-16T09:09:31;999.69;;;4.82;48.52
54144;BME280;40050;47.324;18.792;2024-01-16T09:11:32;999.77;;;4.83;48.56
54144;BME280;40050;47.324;18.792;2024-01-16T09:13:33;999.71;;;4.77;48.39
54144;BME280;40050;47.324;18.792;2024-01-16T09:15:34;999.72;;;4.84;48.60
54144;BME280;40050;47.324;18.792;2024-01-16T09:17:35;999.75;;;4.93;48.30
54144;BME280;40050;47.324;18.792;2024-01-16T09:19:39;999.74;;;4.99;47.60
54144;BME280;40050;47.324;18.792;2024-01-16T09:21:40;999.74;;;5.05;47.70
54144;BME280;40050;47.324;18.792;2024-01-16T09:23:41;999.73;;;5.11;47.90
54144;BME280;40050;47.324;18.792;2024-01-16T09:25:42;999.71;;;5.29;47.76
54144;BME280;40050;47.324;18.792;2024-01-16T09:27:43;999.76;;;5.51;47.72
54144;BME280;40050;47.324;18.792;2024-01-16T09:29:44;999.75;;;5.63;46.28
54144;BME280;40050;47.324;18.792;2024-01-16T09:31:45;999.73;;;5.79;47.38
54144;BME280;40050;47.324;18.792;2024-01-16T09:33:46;999.68;;;5.94;45.99
54144;BME280;40050;47.324;18.792;2024-01-16T09:35:47;999.73;;;6.13;45.24
54144;BME280;40050;47.324;18.792;2024-01-16T09:37:48;999.71;;;6.39;45.77
54144;BME280;40050;47.324;18.792;2024-01-16T09:39:49;999.64;;;6.59;45.59
54144;BME280;40050;47.324;18.792;2024-01-16T09:42:00;999.67;;;6.92;45.85
54144;BME280;40050;47.324;18.792;2024-01-16T09:44:01;999.64;;;7.11;43.92
54144;BME280;40050;47.324;18.792;2024-01-16T09:46:04;999.59;;;7.12;43.37
54144;BME280;40050;47.324;18.792;2024-01-16T09:48:06;999.64;;;7.16;42.56
54144;BME280;40050;47.324;18.792;2024-01-16T09:50:08;999.69;;;7.28;41.76
54144;BME280;40050;47.324;18.792;2024-01-16T09:52:09;999.56;;;7.35;41.44
54144;BME280;40050;47.324;18.792;2024-01-16T09:54:10;999.63;;;7.59;42.30
54144;BME280;40050;47.324;18.792;2024-01-16T09:56:14;999.56;;;7.73;41.31
54144;BME280;40050;47.324;18.792;2024-01-16T09:58:15;999.57;;;7.77;40.66
54144;BME280;40050;47.324;18.792;2024-01-16T10:00:19;999.59;;;7.85;40.23
54144;BME280;40050;47.324;18.792;2024-01-16T10:02:21;999.63;;;7.89;40.92
54144;BME280;40050;47.324;18.792;2024-01-16T10:04:23;999.63;;;7.86;40.40
54144;BME280;40050;47.324;18.792;2024-01-16T10:06:24;999.52;;;7.90;39.91
54144;BME280;40050;47.324;18.792;2024-01-16T10:08:27;999.54;;;8.03;40.75
54144;BME280;40050;47.324;18.792;2024-01-16T10:10:29;999.49;;;8.09;39.74
54144;BME280;40050;47.324;18.792;2024-01-16T10:12:30;999.56;;;8.20;40.50
54144;BME280;40050;47.324;18.792;2024-01-16T10:14:32;999.47;;;8.25;39.43
54144;BME280;40050;47.324;18.792;2024-01-16T10:19:05;999.50;;;8.41;38.49
54144;BME280;40050;47.324;18.792;2024-01-16T10:21:16;999.53;;;8.42;38.25
54144;BME280;40050;47.324;18.792;2024-01-16T10:23:22;999.53;;;8.40;37.13
54144;BME280;40050;47.324;18.792;2024-01-16T10:25:23;999.50;;;8.44;37.82
54144;BME280;40050;47.324;18.792;2024-01-16T10:27:24;999.55;;;8.35;36.36
54144;BME280;40050;47.324;18.792;2024-01-16T10:29:25;999.66;;;8.33;35.77
54144;BME280;40050;47.324;18.792;2024-01-16T10:31:26;999.47;;;8.30;36.48
54144;BME280;40050;47.324;18.792;2024-01-16T10:33:30;999.55;;;8.40;37.73
54144;BME280;40050;47.324;18.792;2024-01-16T10:35:31;999.51;;;8.42;37.01
54144;BME280;40050;47.324;18.792;2024-01-16T10:37:53;999.49;;;8.49;36.41
54144;BME280;40050;47.324;18.792;2024-01-16T10:39:49;999.55;;;8.53;36.68
54144;BME280;40050;47.324;18.792;2024-01-16T10:41:57;999.50;;;8.55;36.50
54144;BME280;40050;47.324;18.792;2024-01-16T10:44:04;999.50;;;8.48;35.98
54144;BME280;40050;47.324;18.792;2024-01-16T10:46:12;999.45;;;8.55;36.48
54144;BME280;40050;47.324;18.792;2024-01-16T10:48:13;999.47;;;8.63;35.93
54144;BME280;40050;47.324;18.792;2024-01-16T10:50:14;999.43;;;8.60;35.91
54144;BME280;40050;47.324;18.792;2024-01-16T10:52:15;999.42;;;8.69;35.21
54144;BME280;40050;47.324;18.792;2024-01-16T10:54:18;999.44;;;8.65;35.66
54144;BME280;40050;47.324;18.792;2024-01-16T10:56:19;999.42;;;8.69;35.33
54144;BME280;40050;47.324;18.792;2024-01-16T10:58:23;999.40;;;8.66;35.50
54144;BME280;40050;47.324;18.792;2024-01-16T11:00:24;999.42;;;8.66;35.09
54144;BME280;40050;47.324;18.792;2024-01-16T11:02:26;999.42;;;8.72;35.82
54144;BME280;40050;47.324;18.792;2024-01-16T11:04:30;999.33;;;8.74;35.23
54144;BME280;40050;47.324;18.792;2024-01-16T11:06:31;999.43;;;8.79;35.21
54144;BME280;40050;47.324;18.792;2024-01-16T11:08:32;999.37;;;8.80;35.56
54144;BME280;40050;47.324;18.792;2024-01-16T11:10:34;999.35;;;8.86;35.25
54144;BME280;40050;47.324;18.792;2024-01-16T11:12:37;999.36;;;8.92;35.16
54144;BME280;40050;47.324;18.792;2024-01-16T11:14:38;999.38;;;8.81;34.96
54144;BME280;40050;47.324;18.792;2024-01-16T11:16:40;999.39;;;8.79;35.12
54144;BME280;40050;47.324;18.792;2024-01-16T11:18:41;999.29;;;8.62;34.66
54144;BME280;40050;47.324;18.792;2024-01-16T11:20:42;999.31;;;8.57;35.21
54144;BME280;40050;47.324;18.792;2024-01-16T11:22:43;999.26;;;8.51;34.81
54144;BME280;40050;47.324;18.792;2024-01-16T11:24:45;999.25;;;8.53;34.85
54144;BME280;40050;47.324;18.792;2024-01-16T11:27:01;999.23;;;8.51;35.21
54144;BME280;40050;47.324;18.792;2024-01-16T11:31:30;999.25;;;8.29;34.79
54144;BME280;40050;47.324;18.792;2024-01-16T11:35:44;999.33;;;8.24;34.90
54144;BME280;40050;47.324;18.792;2024-01-16T11:37:45;999.31;;;8.23;34.88
54144;BME280;40050;47.324;18.792;2024-01-16T11:39:46;999.41;;;8.17;34.62
54144;BME280;40050;47.324;18.792;2024-01-16T11:41:57;999.41;;;8.19;35.02
54144;BME280;40050;47.324;18.792;2024-01-16T11:44:22;999.36;;;8.18;35.12
54144;BME280;40050;47.324;18.792;2024-01-16T11:46:23;999.39;;;8.20;35.72
54144;BME280;40050;47.324;18.792;2024-01-16T11:48:39;999.39;;;8.19;34.88
54144;BME280;40050;47.324;18.792;2024-01-16T11:50:41;999.35;;;8.12;34.50
54144;BME280;40050;47.324;18.792;2024-01-16T11:55:13;999.25;;;7.96;35.53
54144;BME280;40050;47.324;18.792;2024-01-16T11:57:39;999.30;;;8.05;35.12
54144;BME280;40050;47.324;18.792;2024-01-16T11:59:47;999.39;;;8.08;34.55
54144;BME280;40050;47.324;18.792;2024-01-16T12:01:57;999.28;;;7.97;35.13
54144;BME280;40050;47.324;18.792;2024-01-16T12:04:02;999.38;;;8.04;35.49
54144;BME280;40050;47.324;18.792;2024-01-16T12:06:03;999.39;;;8.06;35.33
54144;BME280;40050;47.324;18.792;2024-01-16T12:08:04;999.42;;;8.13;35.28
54144;BME280;40050;47.324;18.792;2024-01-16T12:10:05;999.40;;;8.09;34.87
54144;BME280;40050;47.324;18.792;2024-01-16T12:12:06;999.34;;;8.09;35.10
54144;BME280;40050;47.324;18.792;2024-01-16T12:14:07;999.33;;;8.11;35.37
54144;BME280;40050;47.324;18.792;2024-01-16T12:16:08;999.23;;;8.12;35.45
54144;BME280;40050;47.324;18.792;2024-01-16T12:18:09;999.32;;;8.12;35.36
54144;BME280;40050;47.324;18.792;2024-01-16T12:20:18;999.38;;;8.04;34.99
54144;BME280;40050;47.324;18.792;2024-01-16T12:22:19;999.30;;;8.01;35.65
54144;BME280;40050;47.324;18.792;2024-01-16T12:24:20;999.43;;;8.08;35.47
54144;BME280;40050;47.324;18.792;2024-01-16T12:26:22;999.39;;;8.04;35.42
54144;BME280;40050;47.324;18.792;2024-01-16T12:28:23;999.40;;;8.02;35.26
54144;BME280;40050;47.324;18.792;2024-01-16T12:30:24;999.42;;;8.03;35.40
54144;BME280;40050;47.324;18.792;2024-01-16T12:32:34;999.44;;;8.07;35.46
54144;BME280;40050;47.324;18.792;2024-01-16T12:34:38;999.41;;;8.04;35.19
54144;BME280;40050;47.324;18.792;2024-01-16T12:36:47;999.35;;;7.99;35.34
54144;BME280;40050;47.324;18.792;2024-01-16T12:38:54;999.31;;;7.97;35.90
54144;BME280;40050;47.324;18.792;2024-01-16T12:40:55;999.37;;;7.98;35.85
54144;BME280;40050;47.324;18.792;2024-01-16T12:43:02;999.31;;;7.90;35.80
54144;BME280;40050;47.324;18.792;2024-01-16T12:45:07;999.29;;;7.86;35.94
54144;BME280;40050;47.324;18.792;2024-01-16T12:47:11;999.20;;;7.81;35.54
54144;BME280;40050;47.324;18.792;2024-01-16T12:49:15;999.27;;;7.72;35.66
54144;BME280;40050;47.324;18.792;2024-01-16T12:51:20;999.23;;;7.71;35.82
54144;BME280;40050;47.324;18.792;2024-01-16T12:53:21;999.32;;;7.76;35.73
54144;BME280;40050;47.324;18.792;2024-01-16T12:55:25;999.30;;;7.80;35.61
54144;BME280;40050;47.324;18.792;2024-01-16T12:59:43;999.35;;;7.67;35.16
54144;BME280;40050;47.324;18.792;2024-01-16T13:01:44;999.45;;;7.58;34.80
54144;BME280;40050;47.324;18.792;2024-01-16T13:03:45;999.52;;;7.59;35.46
54144;BME280;40050;47.324;18.792;2024-01-16T13:05:54;999.45;;;7.53;35.26
54144;BME280;40050;47.324;18.792;2024-01-16T13:07:59;999.36;;;7.41;34.71
54144;BME280;40050;47.324;18.792;2024-01-16T13:10:12;999.47;;;7.47;34.97
54144;BME280;40050;47.324;18.792;2024-01-16T13:12:19;999.45;;;7.43;34.50
54144;BME280;40050;47.324;18.792;2024-01-16T13:14:23;999.45;;;7.46;34.30
54144;BME280;40050;47.324;18.792;2024-01-16T13:16:24;999.46;;;7.53;34.33
54144;BME280;40050;47.324;18.792;2024-01-16T13:18:26;999.39;;;7.53;34.50
54144;BME280;40050;47.324;18.792;2024-01-16T13:20:27;999.46;;;7.57;34.16